Time;durP1;ratioP1;P1;durP2;ratioP2;P2;SDS_P1;SDS_P2;PMS_P1;PMS_P2;Temp;Humidity;BMP_temperature;BMP_pressure;BME280_temperature;BME280_humidity;BME280_pressure;Samples;Min_cycle;Max_cycle;Signal;HPM_P1;HPM_P2
2023/05/06 00:01:46;;;;;;;2.33;1.20;;;;;;;19.98;65.53;100438.91;5068304;28;20167;-62
2023/05/06 00:04:12;;;;;;;2.17;1.53;;;;;;;19.99;65.52;100440.56;5052627;28;20186;-62
2023/05/06 00:06:37;;;;;;;1.93;1.30;;;;;;;19.99;65.36;100442.56;5073174;28;20576;-62
2023/05/06 00:09:03;;;;;;;2.20;1.63;;;;;;;19.98;65.19;100436.03;5073470;28;20645;-61
2023/05/06 00:11:28;;;;;;;3.07;1.30;;;;;;;19.99;65.37;100442.56;5090482;28;20198;-61
2023/05/06 00:13:54;;;;;;;2.10;1.20;;;;;;;19.98;65.44;100440.94;5078319;28;20221;-62
2023/05/06 00:16:19;;;;;;;2.07;1.43;;;;;;;19.98;65.29;100441.78;5075709;28;20179;-62
2023/05/06 00:18:45;;;;;;;2.00;1.40;;;;;;;19.99;65.18;100436.84;5073279;28;20209;-62
2023/05/06 00:21:10;;;;;;;2.67;1.67;;;;;;;19.99;65.38;100434.81;5072874;28;20175;-62
2023/05/06 00:23:36;;;;;;;1.90;1.20;;;;;;;19.99;65.24;100440.56;5073174;28;20183;-62
2023/05/06 00:26:01;;;;;;;2.30;1.50;;;;;;;19.97;65.57;100428.63;5057977;28;20279;-61
2023/05/06 00:28:27;;;;;;;1.97;1.33;;;;;;;19.98;65.38;100432.34;5093310;28;20227;-62
2023/05/06 00:30:52;;;;;;;1.73;1.20;;;;;;;19.97;65.52;100420.03;5093103;28;20177;-62
2023/05/06 00:33:17;;;;;;;2.40;1.40;;;;;;;19.97;65.41;100419.22;5088827;28;20637;-62
2023/05/06 00:35:43;;;;;;;2.47;1.50;;;;;;;19.97;65.31;100424.97;5093236;28;20173;-63
2023/05/06 00:38:10;;;;;;;1.90;1.40;;;;;;;19.98;65.53;100424.56;5088849;28;20178;-62
2023/05/06 00:40:35;;;;;;;1.80;1.20;;;;;;;19.98;65.63;100424.56;5054751;28;20178;-63
2023/05/06 00:43:01;;;;;;;2.17;1.40;;;;;;;19.98;65.48;100426.59;5072925;28;20424;-62
2023/05/06 00:45:27;;;;;;;2.20;1.50;;;;;;;19.97;65.54;100434.38;5074370;28;20231;-62
2023/05/06 00:47:52;;;;;;;1.93;1.27;;;;;;;19.97;65.67;100425.75;5054947;28;20155;-62
2023/05/06 00:50:17;;;;;;;1.87;1.40;;;;;;;19.98;65.60;100426.59;5060504;28;20178;-62
2023/05/06 00:52:43;;;;;;;2.10;1.27;;;;;;;19.97;65.40;100428.63;5074694;28;20186;-62
2023/05/06 00:55:08;;;;;;;2.00;1.40;;;;;;;19.97;65.37;100428.63;5069184;28;20213;-63
2023/05/06 00:57:34;;;;;;;2.20;1.73;;;;;;;19.97;65.36;100434.38;5085773;28;20692;-62
2023/05/06 00:59:59;;;;;;;2.33;1.27;;;;;;;19.97;65.37;100428.63;5075037;28;20167;-62
2023/05/06 01:02:25;;;;;;;2.10;1.27;;;;;;;19.97;65.83;100422.91;5074236;28;20190;-63
2023/05/06 01:04:50;;;;;;;1.80;1.10;;;;;;;19.97;65.40;100428.63;5071546;28;20178;-62
2023/05/06 01:07:38;;;;;;;1.90;1.10;;;;;;;19.97;65.35;100428.63;5071136;28;20186;-62
2023/05/06 01:10:18;;;;;;;2.03;1.33;;;;;;;19.96;65.69;100421.25;5055529;28;20303;-63
2023/05/06 01:13:07;;;;;;;2.37;1.60;;;;;;;19.97;65.57;100416.34;5053505;28;20455;-62
2023/05/06 01:15:39;;;;;;;3.20;1.50;;;;;;;19.97;65.38;100427.81;5057117;28;20502;-62
2023/05/06 01:18:08;;;;;;;3.10;1.27;;;;;;;19.96;65.63;100420.44;5034164;28;20534;-62
2023/05/06 01:20:33;;;;;;;1.80;1.20;;;;;;;19.97;65.75;100430.69;5034299;28;20494;-62
2023/05/06 01:23:00;;;;;;;1.70;1.10;;;;;;;19.96;65.38;100418.38;5052321;28;20414;-62
2023/05/06 01:25:25;;;;;;;1.80;1.10;;;;;;;19.96;65.67;100424.13;5045083;28;20202;-63
2023/05/06 01:27:50;;;;;;;2.00;1.50;;;;;;;19.96;65.58;100426.97;5071861;28;20915;-63
2023/05/06 01:30:17;;;;;;;2.20;1.53;;;;;;;19.96;65.52;100420.44;5070849;28;20510;-63
2023/05/06 01:32:54;;;;;;;2.00;1.50;;;;;;;19.96;65.29;100420.44;5053461;28;20194;-63
2023/05/06 01:35:30;;;;;;;2.37;1.50;;;;;;;19.96;65.36;100424.13;5087664;28;20537;-63
2023/05/06 01:38:15;;;;;;;2.27;1.40;;;;;;;19.95;65.67;100408.16;5074093;28;20959;-63
2023/05/06 01:40:41;;;;;;;2.00;1.17;;;;;;;19.96;65.25;100408.97;5085083;28;21071;-63
2023/05/06 01:43:06;;;;;;;1.90;1.23;;;;;;;19.95;65.78;100407.31;5077553;28;20414;-62
2023/05/06 01:45:33;;;;;;;1.77;1.10;;;;;;;19.96;65.57;100406.13;5051909;28;20159;-62
2023/05/06 01:47:58;;;;;;;2.20;1.37;;;;;;;19.95;65.51;100411.00;5070797;28;20179;-62
2023/05/06 01:50:24;;;;;;;2.13;1.30;;;;;;;19.96;65.37;100411.84;5072550;28;20421;-63
2023/05/06 01:52:59;;;;;;;1.90;1.30;;;;;;;19.95;65.46;100413.88;5073477;28;20195;-62
2023/05/06 01:55:25;;;;;;;1.90;1.30;;;;;;;19.95;65.52;100411.00;5084328;28;20523;-62
2023/05/06 01:57:50;;;;;;;1.70;0.90;;;;;;;19.95;65.43;100418.78;5075517;28;20497;-62
2023/05/06 02:00:16;;;;;;;1.90;1.23;;;;;;;19.95;65.62;100411.00;5086264;28;20217;-63
2023/05/06 02:02:41;;;;;;;2.23;1.50;;;;;;;19.96;65.22;100414.72;5071515;28;20198;-63
2023/05/06 02:05:07;;;;;;;1.87;1.20;;;;;;;19.95;65.83;100411.00;5071186;28;20164;-62
2023/05/06 02:07:32;;;;;;;1.80;1.30;;;;;;;19.96;65.51;100417.56;5073205;28;20320;-62
2023/05/06 02:09:58;;;;;;;2.00;1.23;;;;;;;19.95;65.53;100413.88;5071535;28;20198;-61
2023/05/06 02:12:23;;;;;;;2.40;1.50;;;;;;;19.95;65.66;100416.75;5071022;28;20195;-62
2023/05/06 02:14:49;;;;;;;1.80;1.20;;;;;;;19.96;65.70;100426.19;5072618;28;20280;-62
2023/05/06 02:17:14;;;;;;;1.83;1.13;;;;;;;19.95;65.39;100424.50;5071156;28;20210;-62
2023/05/06 02:19:40;;;;;;;1.93;1.20;;;;;;;19.93;65.49;100427.78;5073431;28;20190;-62
2023/05/06 02:22:05;;;;;;;2.30;1.30;;;;;;;19.93;65.56;100421.22;5072470;28;20186;-62
2023/05/06 02:24:30;;;;;;;1.90;1.27;;;;;;;19.94;65.62;100417.97;5072245;28;20190;-62
2023/05/06 02:26:56;;;;;;;2.37;1.67;;;;;;;19.95;65.64;100413.03;5089304;28;20190;-62
2023/05/06 02:29:21;;;;;;;1.90;1.20;;;;;;;19.94;65.59;100412.22;5090544;28;20183;-62
2023/05/06 02:31:47;;;;;;;1.90;1.13;;;;;;;19.94;65.57;100412.22;5072417;28;20203;-62
2023/05/06 02:34:12;;;;;;;2.20;1.40;;;;;;;19.94;65.20;100409.38;5071308;28;20189;-62
2023/05/06 02:36:37;;;;;;;2.10;1.10;;;;;;;19.94;65.53;100415.09;5070196;28;20163;-62
2023/05/06 02:39:03;;;;;;;1.50;0.90;;;;;;;19.94;65.49;100405.66;5072700;28;20183;-62
2023/05/06 02:41:29;;;;;;;2.00;1.13;;;;;;;19.95;65.56;100410.16;5070724;28;20168;-63
2023/05/06 02:43:54;;;;;;;1.60;1.13;;;;;;;19.93;65.55;100406.88;5052549;28;20290;-62
2023/05/06 02:46:20;;;;;;;2.03;1.17;;;;;;;19.93;65.04;100402.00;5070245;28;20182;-62
2023/05/06 02:48:45;;;;;;;1.87;1.23;;;;;;;19.93;65.44;100401.16;5072780;28;20191;-62
2023/05/06 02:51:11;;;;;;;2.30;1.40;;;;;;;19.93;65.30;100402.00;5070025;28;20202;-62
2023/05/06 02:53:36;;;;;;;2.03;1.20;;;;;;;19.93;65.22;100392.56;5070378;28;20922;-62
2023/05/06 02:56:02;;;;;;;1.50;0.90;;;;;;;19.93;65.30;100392.56;5069878;28;20182;-62
2023/05/06 02:58:28;;;;;;;1.80;1.10;;;;;;;19.94;64.99;100391.34;5072031;28;20198;-62
2023/05/06 03:00:53;;;;;;;1.97;1.00;;;;;;;19.93;65.58;100396.25;5072680;28;20205;-62
2023/05/06 03:03:19;;;;;;;1.70;1.03;;;;;;;19.92;65.28;100397.44;5069839;28;20178;-62
2023/05/06 03:05:45;;;;;;;2.17;1.47;;;;;;;19.93;65.21;100393.38;5070333;28;20646;-62
2023/05/06 03:08:10;;;;;;;1.80;1.10;;;;;;;19.93;65.10;100392.56;5084587;28;20593;-62
2023/05/06 03:10:36;;;;;;;2.03;1.40;;;;;;;19.93;65.40;100389.69;5088412;28;20527;-62
2023/05/06 03:13:01;;;;;;;2.27;1.30;;;;;;;19.93;65.39;100384.78;5084346;28;20250;-62
2023/05/06 03:15:27;;;;;;;1.70;1.10;;;;;;;19.91;65.52;100381.47;5068886;28;20226;-62
2023/05/06 03:17:52;;;;;;;1.97;1.17;;;;;;;19.92;65.26;100385.19;5069128;28;20179;-61
2023/05/06 03:20:18;;;;;;;1.63;1.00;;;;;;;19.92;65.18;100391.72;5069029;28;20175;-63
2023/05/06 03:22:43;;;;;;;2.07;1.30;;;;;;;19.92;64.93;100391.72;5071515;28;20179;-61
2023/05/06 03:25:09;;;;;;;1.77;1.10;;;;;;;19.92;65.41;100382.31;5068943;28;20197;-62
2023/05/06 03:27:35;;;;;;;1.80;1.10;;;;;;;19.92;65.33;100390.91;5069589;28;20292;-62
2023/05/06 03:30:00;;;;;;;1.80;1.30;;;;;;;19.92;64.99;100388.03;5069738;28;20171;-62
2023/05/06 03:32:26;;;;;;;1.80;1.10;;;;;;;19.91;64.97;100390.06;5058743;28;20198;-62
2023/05/06 03:34:51;;;;;;;2.10;1.30;;;;;;;19.91;65.37;100395.00;5051993;28;20170;-62
2023/05/06 03:37:17;;;;;;;1.50;1.00;;;;;;;19.91;65.31;100390.06;5070795;28;20234;-62
2023/05/06 03:39:42;;;;;;;2.03;1.00;;;;;;;19.91;65.24;100392.94;5073412;28;20221;-61
2023/05/06 03:42:08;;;;;;;3.67;1.03;;;;;;;19.90;65.20;100382.69;5071015;28;20529;-62
2023/05/06 03:44:33;;;;;;;2.10;1.20;;;;;;;19.90;65.60;100388.41;5070123;28;20842;-62
2023/05/06 03:46:58;;;;;;;2.50;1.53;;;;;;;19.91;65.27;100389.25;5072000;28;20190;-62
2023/05/06 03:49:24;;;;;;;1.67;1.07;;;;;;;19.90;65.29;100393.31;5069775;28;20164;-62
2023/05/06 03:51:50;;;;;;;2.17;1.10;;;;;;;19.91;65.13;100395.00;5069486;28;20296;-62
2023/05/06 03:54:15;;;;;;;1.87;1.20;;;;;;;19.91;64.79;100392.13;5069694;28;20159;-62
2023/05/06 03:56:41;;;;;;;1.80;1.07;;;;;;;19.90;65.15;100387.59;5053352;28;20183;-62
2023/05/06 03:59:06;;;;;;;1.93;1.30;;;;;;;19.90;65.13;100388.41;5069399;28;20174;-61
2023/05/06 04:01:32;;;;;;;1.80;1.27;;;;;;;19.90;65.14;100394.16;5069271;28;20167;-61
2023/05/06 04:03:57;;;;;;;2.03;1.43;;;;;;;19.90;65.20;100387.59;5069005;28;20182;-62
2023/05/06 04:06:23;;;;;;;2.30;1.20;;;;;;;19.89;64.86;100391.66;5071063;28;20190;-62
2023/05/06 04:08:48;;;;;;;1.90;1.10;;;;;;;19.88;65.23;100388.00;5067490;28;20197;-63
2023/05/06 04:11:14;;;;;;;1.60;1.00;;;;;;;19.89;65.37;100389.66;5066474;28;20203;-62
2023/05/06 04:13:39;;;;;;;2.20;1.30;;;;;;;19.89;65.48;100392.50;5066804;28;20230;-63
2023/05/06 04:16:05;;;;;;;1.80;1.03;;;;;;;19.89;64.93;100392.50;5070663;28;20352;-62
2023/05/06 04:18:31;;;;;;;1.53;0.90;;;;;;;19.89;65.06;100398.25;5050330;28;20182;-62
2023/05/06 04:20:57;;;;;;;1.60;1.07;;;;;;;19.90;65.16;100404.78;5069156;28;20240;-62
2023/05/06 04:23:22;;;;;;;1.77;1.00;;;;;;;19.89;65.15;100398.25;5069632;28;20440;-62
2023/05/06 04:25:47;;;;;;;1.67;1.00;;;;;;;19.89;65.12;100398.25;5071868;28;20187;-62
2023/05/06 04:28:15;;;;;;;1.90;1.10;;;;;;;19.89;65.13;100403.97;5052893;28;20191;-63
2023/05/06 04:30:40;;;;;;;1.53;0.90;;;;;;;19.89;65.07;100395.38;5051503;28;20178;-62
2023/05/06 04:33:07;;;;;;;1.63;1.00;;;;;;;19.88;65.01;100399.47;5068706;28;20453;-62
2023/05/06 04:35:33;;;;;;;1.73;1.03;;;;;;;19.88;65.10;100402.31;5072122;28;20199;-62
2023/05/06 04:37:58;;;;;;;1.63;0.90;;;;;;;19.89;65.52;100397.41;5068639;28;20421;-62
2023/05/06 04:40:26;;;;;;;1.70;1.10;;;;;;;19.89;65.09;100403.97;5053787;28;20179;-62
2023/05/06 04:42:52;;;;;;;1.80;1.10;;;;;;;19.87;65.07;100406.38;5068974;28;20167;-63
2023/05/06 04:45:17;;;;;;;1.80;1.10;;;;;;;19.88;65.08;100404.34;5069196;28;20471;-63
2023/05/06 04:47:42;;;;;;;1.90;1.30;;;;;;;19.88;65.11;100405.19;5087096;28;20171;-62
2023/05/06 04:50:08;;;;;;;1.80;1.00;;;;;;;19.88;65.13;100416.66;5089566;28;20171;-62
2023/05/06 04:52:35;;;;;;;1.83;1.17;;;;;;;19.90;65.28;100421.97;5092934;28;20206;-63
2023/05/06 04:55:00;;;;;;;1.77;1.03;;;;;;;19.89;65.25;100414.59;5088848;28;20239;-63
2023/05/06 04:57:26;;;;;;;2.07;1.10;;;;;;;19.88;65.11;100416.66;5071318;28;21284;-63
2023/05/06 04:59:51;;;;;;;2.43;1.20;;;;;;;19.88;65.28;100421.53;5071901;28;20163;-63
2023/05/06 05:02:17;;;;;;;1.60;0.90;;;;;;;19.89;64.90;100426.91;5086143;28;20178;-63
2023/05/06 05:04:42;;;;;;;2.10;1.20;;;;;;;19.88;65.07;100425.25;5075891;28;20240;-62
2023/05/06 05:07:08;;;;;;;1.63;1.00;;;;;;;19.89;64.97;100426.06;5076699;28;20174;-63
2023/05/06 05:09:34;;;;;;;2.03;1.10;;;;;;;19.88;65.13;100421.53;5092348;28;20171;-63
2023/05/06 05:12:02;;;;;;;1.90;1.20;;;;;;;19.88;64.91;100424.41;5074278;28;20206;-64
2023/05/06 05:14:28;;;;;;;1.90;1.30;;;;;;;19.87;65.07;100423.56;5074622;28;20495;-63
2023/05/06 05:16:53;;;;;;;2.00;1.20;;;;;;;19.88;65.29;100425.25;5072180;28;20402;-63
2023/05/06 05:19:20;;;;;;;1.70;1.30;;;;;;;19.88;64.90;100424.41;5074290;28;20232;-62
2023/05/06 05:21:45;;;;;;;2.10;1.30;;;;;;;19.88;65.38;100430.97;5064939;28;20175;-62
2023/05/06 05:24:11;;;;;;;1.70;1.10;;;;;;;19.88;64.92;100428.13;5090828;28;20431;-63
2023/05/06 05:26:36;;;;;;;1.90;1.10;;;;;;;19.89;64.88;100432.63;5088949;28;20181;-62
2023/05/06 05:29:02;;;;;;;1.90;1.40;;;;;;;19.89;65.01;100431.78;5073913;28;20781;-63
2023/05/06 05:31:28;;;;;;;1.93;1.10;;;;;;;19.88;65.17;100435.88;5087855;28;20198;-63
2023/05/06 05:33:53;;;;;;;1.70;1.10;;;;;;;19.88;65.05;100430.97;5092056;28;20178;-64
2023/05/06 05:36:19;;;;;;;1.70;1.00;;;;;;;19.88;65.10;100436.72;5058853;28;20429;-63
2023/05/06 05:38:46;;;;;;;1.70;1.10;;;;;;;19.88;65.03;100441.59;5071363;28;20182;-63
2023/05/06 05:41:12;;;;;;;2.10;1.40;;;;;;;19.88;65.09;100439.56;5092009;28;20223;-64
2023/05/06 05:43:37;;;;;;;2.60;1.10;;;;;;;19.89;64.77;100431.78;5057282;28;20916;-63
2023/05/06 05:46:03;;;;;;;2.20;1.17;;;;;;;19.89;64.96;100431.78;5055432;28;20541;-63
2023/05/06 05:48:31;;;;;;;2.50;1.37;;;;;;;19.89;64.93;100441.22;5071439;28;20266;-62
2023/05/06 05:50:57;;;;;;;1.70;1.10;;;;;;;19.88;65.37;100445.31;5054074;28;20268;-63
2023/05/06 05:53:22;;;;;;;1.83;1.10;;;;;;;19.88;65.33;100442.44;5073073;28;21218;-62
2023/05/06 05:55:48;;;;;;;1.70;1.20;;;;;;;19.88;65.09;100448.16;5070992;28;20843;-62
2023/05/06 05:58:13;;;;;;;1.87;1.13;;;;;;;19.88;65.17;100442.44;5072924;28;20634;-61
2023/05/06 06:00:39;;;;;;;1.60;0.90;;;;;;;19.90;64.86;100439.16;5071319;28;20616;-62
2023/05/06 06:03:04;;;;;;;1.90;1.20;;;;;;;19.89;65.20;100444.09;5070418;28;20533;-62
2023/05/06 06:05:30;;;;;;;1.80;1.00;;;;;;;19.90;65.13;100447.75;5087527;28;20174;-62
2023/05/06 06:07:55;;;;;;;1.93;1.20;;;;;;;19.90;65.02;100448.59;5073424;28;20214;-61
2023/05/06 06:10:21;;;;;;;1.70;1.03;;;;;;;19.89;64.93;100444.09;5091419;28;20188;-62
2023/05/06 06:12:46;;;;;;;1.83;1.20;;;;;;;19.89;65.00;100449.81;5088178;28;20198;-63
2023/05/06 06:15:12;;;;;;;2.13;1.10;;;;;;;19.90;65.26;100453.50;5086785;28;20225;-62
2023/05/06 06:17:37;;;;;;;2.00;1.00;;;;;;;19.89;65.32;100449.81;5064613;28;20187;-62
2023/05/06 06:20:03;;;;;;;1.80;1.13;;;;;;;19.90;65.13;100453.50;5074778;28;20183;-62
2023/05/06 06:22:29;;;;;;;2.00;1.20;;;;;;;19.90;65.24;100457.19;5070614;28;20183;-62
2023/05/06 06:24:55;;;;;;;2.00;1.20;;;;;;;19.90;65.36;100454.31;5072575;28;20440;-62
2023/05/06 06:27:20;;;;;;;1.87;1.20;;;;;;;19.90;65.21;100457.19;5072448;28;20163;-61
2023/05/06 06:29:48;;;;;;;1.80;1.03;;;;;;;19.90;65.55;100459.22;5070808;28;20192;-62
2023/05/06 06:32:14;;;;;;;1.60;1.00;;;;;;;19.90;65.36;100459.22;5070376;28;20209;-61
2023/05/06 06:34:40;;;;;;;2.33;1.10;;;;;;;19.89;65.19;100455.53;5076276;28;21145;-62
2023/05/06 06:37:05;;;;;;;1.73;1.17;;;;;;;19.88;65.37;100462.50;5090723;28;20175;-62
2023/05/06 06:39:31;;;;;;;1.63;1.00;;;;;;;19.90;64.89;100467.81;5090543;28;20158;-61
2023/05/06 06:41:57;;;;;;;1.93;1.00;;;;;;;19.90;65.19;100465.78;5088163;28;20174;-62
2023/05/06 06:44:22;;;;;;;2.10;1.20;;;;;;;19.89;65.19;100464.16;5081091;28;20601;-63
2023/05/06 06:46:48;;;;;;;1.90;1.10;;;;;;;19.90;65.34;100462.94;5060583;28;20422;-63
2023/05/06 06:49:16;;;;;;;1.80;1.10;;;;;;;19.90;64.85;100465.78;5069083;28;20189;-62
2023/05/06 06:51:42;;;;;;;1.80;1.10;;;;;;;19.90;64.94;100465.78;5070149;28;20187;-63
2023/05/06 06:54:07;;;;;;;2.00;1.10;;;;;;;19.90;65.42;100468.66;5051956;28;20920;-62
2023/05/06 06:56:33;;;;;;;1.70;1.00;;;;;;;19.90;65.38;100467.81;5070044;28;20737;-63
2023/05/06 06:58:58;;;;;;;1.90;1.10;;;;;;;19.90;65.21;100467.81;5072013;28;20647;-62
2023/05/06 07:01:23;;;;;;;1.80;1.10;;;;;;;19.90;65.22;100464.94;5070264;28;20269;-62
2023/05/06 07:03:49;;;;;;;2.03;1.27;;;;;;;19.88;65.54;100465.34;5054334;28;20194;-61
2023/05/06 07:06:15;;;;;;;2.20;1.30;;;;;;;19.89;65.38;100467.00;5053297;28;20167;-63
2023/05/06 07:08:40;;;;;;;2.03;1.13;;;;;;;19.88;65.23;100465.34;5051436;28;20543;-62
2023/05/06 07:11:05;;;;;;;1.80;1.10;;;;;;;19.90;65.47;100467.81;5082416;28;20221;-62
2023/05/06 07:13:31;;;;;;;1.83;1.17;;;;;;;19.90;65.41;100470.69;5089177;28;20163;-62
2023/05/06 07:15:57;;;;;;;2.33;1.07;;;;;;;19.90;65.19;100468.66;5085766;28;20175;-63
2023/05/06 07:18:23;;;;;;;2.30;1.40;;;;;;;19.90;65.69;100464.94;5069964;28;20619;-62
2023/05/06 07:20:48;;;;;;;2.10;1.30;;;;;;;19.90;65.03;100474.38;5051568;28;20420;-62
2023/05/06 07:23:13;;;;;;;1.90;1.03;;;;;;;19.90;65.28;100468.66;5083101;28;20200;-62
2023/05/06 07:25:39;;;;;;;1.70;1.20;;;;;;;19.90;65.27;100468.66;5080342;28;20207;-62
2023/05/06 07:28:04;;;;;;;1.87;1.20;;;;;;;19.90;65.38;100468.66;5074164;28;20181;-62
2023/05/06 07:30:30;;;;;;;1.70;1.07;;;;;;;19.91;65.26;100472.34;5089830;28;20193;-61
2023/05/06 07:32:55;;;;;;;1.90;1.10;;;;;;;19.92;64.99;100471.13;5088777;28;20243;-62
2023/05/06 07:35:21;;;;;;;2.10;1.20;;;;;;;19.91;65.32;100467.44;5071297;28;20178;-63
2023/05/06 07:37:46;;;;;;;1.80;1.20;;;;;;;19.91;65.36;100472.34;5071533;28;20179;-62
2023/05/06 07:40:12;;;;;;;1.67;1.00;;;;;;;19.92;65.29;100471.13;5068576;28;20183;-62
2023/05/06 07:42:37;;;;;;;1.87;1.03;;;;;;;19.91;65.56;100476.03;5068409;28;20240;-63
2023/05/06 07:45:04;;;;;;;1.70;1.00;;;;;;;19.91;65.46;100473.16;5068510;28;20172;-62
2023/05/06 07:47:30;;;;;;;2.10;1.10;;;;;;;19.91;65.35;100480.94;5080162;28;20621;-62
2023/05/06 07:49:55;;;;;;;1.53;0.80;;;;;;;19.90;65.04;100485.84;5070696;28;20420;-62
2023/05/06 07:52:22;;;;;;;2.00;1.30;;;;;;;19.91;65.13;100480.94;5070131;28;20471;-63
2023/05/06 07:54:47;;;;;;;1.70;1.00;;;;;;;19.91;65.26;100476.03;5086997;28;20197;-62
2023/05/06 07:57:13;;;;;;;1.60;0.90;;;;;;;19.92;65.42;100482.59;5084998;28;20896;-62
2023/05/06 07:59:38;;;;;;;1.70;1.13;;;;;;;19.91;65.43;100481.75;5089836;28;20621;-63
2023/05/06 08:02:04;;;;;;;1.63;1.00;;;;;;;19.90;65.25;100480.13;5071380;28;20228;-63
2023/05/06 08:04:29;;;;;;;1.63;0.97;;;;;;;19.92;65.21;100483.41;5068308;28;20183;-62
2023/05/06 08:06:55;;;;;;;1.73;0.90;;;;;;;19.92;65.34;100492.00;5071308;28;20217;-63
2023/05/06 08:09:21;;;;;;;2.07;1.13;;;;;;;19.90;65.03;100485.84;5088138;28;20251;-63
2023/05/06 08:11:47;;;;;;;1.87;1.10;;;;;;;19.91;65.31;100493.22;5070444;28;20448;-63
2023/05/06 08:14:12;;;;;;;1.70;1.10;;;;;;;19.92;65.25;100489.16;5073764;28;20230;-63
2023/05/06 08:16:37;;;;;;;1.83;1.00;;;;;;;19.93;65.14;100495.72;5070521;28;20194;-62
2023/05/06 08:19:03;;;;;;;1.70;1.30;;;;;;;19.93;65.22;100490.81;5068933;28;20178;-63
2023/05/06 08:21:28;;;;;;;1.73;1.10;;;;;;;19.92;65.02;100489.16;5068909;28;20213;-62
2023/05/06 08:23:54;;;;;;;1.77;1.00;;;;;;;19.92;65.33;100480.53;5073582;28;20190;-63
2023/05/06 08:26:20;;;;;;;1.70;1.10;;;;;;;19.94;65.08;100483.03;5070665;28;20225;-62
2023/05/06 08:28:46;;;;;;;1.90;1.10;;;;;;;19.92;65.23;100483.41;5075134;28;20222;-63
2023/05/06 08:31:12;;;;;;;1.67;0.97;;;;;;;19.92;65.17;100483.41;5071891;28;20437;-63
2023/05/06 08:33:37;;;;;;;1.90;1.10;;;;;;;19.92;65.23;100479.75;5056209;28;20210;-64
2023/05/06 08:36:03;;;;;;;1.70;1.00;;;;;;;19.93;65.40;100484.25;5071733;28;20191;-63
2023/05/06 08:38:28;;;;;;;1.80;1.30;;;;;;;19.93;65.40;100482.22;5071346;28;20175;-62
2023/05/06 08:40:54;;;;;;;1.70;1.00;;;;;;;19.94;65.05;100485.91;5071589;28;20164;-63
2023/05/06 08:43:20;;;;;;;1.90;1.30;;;;;;;19.95;65.19;100485.50;5055293;28;20191;-63
2023/05/06 08:45:45;;;;;;;1.70;1.00;;;;;;;19.94;65.03;100475.28;5071750;28;20232;-63
2023/05/06 08:48:10;;;;;;;2.67;1.07;;;;;;;19.93;65.08;100473.63;5054145;28;20654;-63
2023/05/06 08:50:39;;;;;;;1.80;1.17;;;;;;;19.95;65.24;100476.91;5072281;28;20217;-63
2023/05/06 08:53:05;;;;;;;2.23;1.30;;;;;;;19.95;65.18;100476.09;5062363;28;20621;-63
2023/05/06 08:55:30;;;;;;;1.80;1.03;;;;;;;19.95;65.20;100478.94;5084254;28;20433;-63
2023/05/06 08:57:56;;;;;;;2.13;1.10;;;;;;;19.95;65.11;100478.94;5075669;28;20201;-63
2023/05/06 09:00:21;;;;;;;2.00;1.07;;;;;;;19.94;65.23;100478.13;5092464;28;20159;-63
2023/05/06 09:02:47;;;;;;;1.90;1.03;;;;;;;19.95;65.21;100481.81;5074549;28;20256;-63
2023/05/06 09:05:12;;;;;;;1.90;1.17;;;;;;;19.93;65.29;100469.91;5085161;28;20197;-63
2023/05/06 09:07:38;;;;;;;1.90;0.97;;;;;;;19.93;65.15;100473.63;5058821;28;20213;-63
2023/05/06 09:10:11;;;;;;;1.90;1.20;;;;;;;19.94;65.14;100475.28;5073730;28;20185;-62
2023/05/06 09:12:37;;;;;;;1.70;1.10;;;;;;;19.93;65.19;100473.63;5056439;28;20212;-64
2023/05/06 09:15:02;;;;;;;1.90;1.10;;;;;;;19.94;65.29;100472.41;5041864;28;20475;-63
2023/05/06 09:17:30;;;;;;;1.87;1.10;;;;;;;19.95;65.12;100476.91;5082173;28;20537;-63
2023/05/06 09:19:56;;;;;;;1.70;1.10;;;;;;;19.95;65.13;100476.09;5071235;28;20627;-63
2023/05/06 09:22:30;;;;;;;1.87;1.13;;;;;;;19.94;65.19;100469.53;5071494;28;20409;-63
2023/05/06 09:24:56;;;;;;;1.70;1.10;;;;;;;19.94;65.13;100468.69;5071588;28;20190;-63
2023/05/06 09:27:30;;;;;;;1.73;0.97;;;;;;;19.94;65.21;100462.97;5070005;28;20815;-63
2023/05/06 09:30:08;;;;;;;1.40;0.70;;;;;;;19.95;65.29;100464.63;5051856;28;20428;-64
2023/05/06 09:32:34;;;;;;;1.63;1.10;;;;;;;19.93;64.89;100462.16;5072199;28;20468;-64
2023/05/06 09:35:00;;;;;;;1.63;0.90;;;;;;;19.93;65.14;100462.16;5056497;28;20444;-63
2023/05/06 09:37:26;;;;;;;1.50;0.83;;;;;;;19.93;65.25;100453.56;5089029;28;20197;-64
2023/05/06 09:39:55;;;;;;;1.80;1.10;;;;;;;19.94;65.25;100448.63;5073875;28;20179;-63
2023/05/06 09:42:22;;;;;;;1.80;0.90;;;;;;;19.93;65.10;100444.97;5066732;28;20325;-63
2023/05/06 09:44:48;;;;;;;1.73;1.00;;;;;;;19.95;65.29;100447.44;5071409;28;20583;-63
2023/05/06 09:47:13;;;;;;;1.77;1.13;;;;;;;19.95;64.98;100445.41;5053252;28;20401;-63
2023/05/06 09:49:39;;;;;;;1.90;1.03;;;;;;;19.95;65.23;100448.25;5057156;28;20183;-62
2023/05/06 09:52:05;;;;;;;2.30;1.17;;;;;;;19.95;65.06;100442.53;5073475;28;20183;-64
2023/05/06 09:54:31;;;;;;;1.80;1.00;;;;;;;19.96;65.05;100437.63;5070623;28;20676;-64
2023/05/06 09:56:56;;;;;;;1.70;0.90;;;;;;;19.94;65.12;100438.03;5056330;28;20511;-63
2023/05/06 09:59:22;;;;;;;2.10;1.10;;;;;;;19.96;64.75;100440.50;5073028;28;20177;-63
2023/05/06 10:01:48;;;;;;;1.80;1.10;;;;;;;19.96;65.00;100421.25;5090560;28;20169;-63
2023/05/06 10:04:13;;;;;;;1.80;1.10;;;;;;;19.98;65.01;100427.44;5086445;28;20908;-63
2023/05/06 10:06:39;;;;;;;1.60;0.90;;;;;;;19.96;65.02;100424.13;5090552;28;20690;-63
2023/05/06 10:09:06;;;;;;;1.83;1.00;;;;;;;19.96;65.29;100429.84;5075653;28;20203;-63
2023/05/06 10:11:31;;;;;;;1.50;0.90;;;;;;;19.96;65.00;100429.03;5051977;28;20195;-62
2023/05/06 10:13:58;;;;;;;1.80;1.10;;;;;;;19.97;64.96;100420.03;5077953;28;20483;-63
2023/05/06 10:16:24;;;;;;;1.67;1.00;;;;;;;19.98;64.95;100423.72;5072490;28;20679;-62
2023/05/06 10:18:50;;;;;;;1.80;1.20;;;;;;;19.98;65.03;100418.84;5086966;28;20440;-63
2023/05/06 10:21:20;;;;;;;1.60;0.83;;;;;;;19.98;65.05;100423.72;5039412;28;20591;-63
2023/05/06 10:24:12;;;;;;;2.03;1.10;;;;;;;19.99;65.02;100419.66;5080124;28;20438;-63
2023/05/06 10:26:38;;;;;;;1.77;1.03;;;;;;;19.98;64.89;100424.56;5068279;28;20517;-62
2023/05/06 10:29:08;;;;;;;1.63;0.90;;;;;;;19.97;65.10;100417.16;5060610;28;20449;-63
2023/05/06 10:31:34;;;;;;;1.60;1.00;;;;;;;19.98;64.78;100407.38;5070741;28;20554;-62
2023/05/06 10:34:01;;;;;;;1.50;0.90;;;;;;;19.97;65.06;100417.16;5070272;28;20425;-63
2023/05/06 10:36:28;;;;;;;1.60;0.90;;;;;;;19.98;64.75;100409.41;5052776;28;20228;-63
2023/05/06 10:38:55;;;;;;;1.90;1.20;;;;;;;19.98;64.67;100407.38;5048568;28;20436;-63
2023/05/06 10:41:24;;;;;;;1.80;1.17;;;;;;;19.99;65.07;100406.16;5066473;28;20448;-63
2023/05/06 10:43:55;;;;;;;1.93;0.93;;;;;;;19.98;64.90;100398.78;5054379;28;20416;-64
2023/05/06 10:46:25;;;;;;;1.73;0.90;;;;;;;19.99;64.91;100391.84;5071887;28;20490;-63
2023/05/06 10:49:07;;;;;;;1.60;1.00;;;;;;;19.99;64.91;100391.84;5070113;28;20435;-62
2023/05/06 10:51:41;;;;;;;1.60;0.80;;;;;;;19.99;64.87;100391.00;5055215;28;20465;-63
2023/05/06 10:54:10;;;;;;;2.23;1.07;;;;;;;20.05;66.30;100387.41;5065348;28;20825;-63
2023/05/06 10:56:38;;;;;;;2.83;1.30;;;;;;;20.13;67.97;100386.31;5057511;28;20470;-63
2023/05/06 10:59:08;;;;;;;2.47;1.20;;;;;;;20.15;67.45;100386.75;5049130;28;20460;-62
2023/05/06 11:01:35;;;;;;;3.43;1.30;;;;;;;20.19;68.38;100384.75;5062004;28;20777;-62
2023/05/06 11:04:18;;;;;;;5.30;1.20;;;;;;;20.16;63.91;100385.53;5057757;28;20577;-63
2023/05/06 11:06:45;;;;;;;2.93;1.37;;;;;;;20.18;65.24;100382.28;5067748;28;20486;-62
2023/05/06 11:09:21;;;;;;;5.53;1.30;;;;;;;20.15;63.64;100383.88;5066860;28;20468;-62
2023/05/06 11:12:05;;;;;;;5.40;2.10;;;;;;;20.16;63.66;100379.78;5033864;28;20967;-63
2023/05/06 11:14:37;;;;;;;3.40;1.33;;;;;;;20.14;63.45;100381.41;5060730;28;20467;-63
2023/05/06 11:17:04;;;;;;;2.63;1.23;;;;;;;20.15;63.54;100371.56;5083837;28;20416;-63
2023/05/06 11:19:33;;;;;;;3.47;1.57;;;;;;;20.12;62.37;100378.91;5052528;28;20556;-62
2023/05/06 11:22:00;;;;;;;4.33;1.50;;;;;;;20.15;63.80;100371.56;5087818;28;20432;-63